Time;durP1;ratioP1;P1;durP2;ratioP2;P2;SDS_P1;SDS_P2;PMS_P1;PMS_P2;Temp;Humidity;BMP_temperature;BMP_pressure;BME280_temperature;BME280_humidity;BME280_pressure;Samples;Min_cycle;Max_cycle;Signal;HPM_P1;HPM_P2
2022/03/07 00:15:28;;;;;;;;;;;;;;;6.20;71.33;101720.88;5339781;22;1757;-96
2022/03/07 00:18:24;;;;;;;;;;;;;;;6.19;71.44;101724.56;5056731;28;614;-96
2022/03/07 00:21:02;;;;;;;;;;;;;;;6.19;71.27;101729.09;5039016;28;1385;-96
2022/03/07 00:23:34;;;;;;;;;;;;;;;6.17;71.43;101723.88;5038519;28;1305;-96
2022/03/07 00:26:03;;;;;;;;;;;;;;;6.17;71.64;101715.88;5071337;28;994;-96
2022/03/07 00:28:34;;;;;;;;;;;;;;;6.13;71.56;101712.69;5038375;28;1276;-96
2022/03/07 00:36:28;;;;;;;;;;;;;;;6.11;71.31;101709.31;5038220;28;1277;-96
2022/03/07 00:38:56;;;;;;;;;;;;;;;6.10;71.21;101710.34;5037209;28;1902;-96
2022/03/07 00:41:24;;;;;;;;;;;;;;;6.09;71.48;101710.50;5032263;28;1212;-96
2022/03/07 00:43:53;;;;;;;;;;;;;;;6.07;71.12;101705.31;5016001;28;1339;-96
2022/03/07 00:46:21;;;;;;;;;;;;;;;6.07;71.22;101713.34;5021329;28;1313;-96
2022/03/07 00:48:48;;;;;;;;;;;;;;;6.05;71.21;101712.66;5037494;28;1320;-96
2022/03/07 00:51:15;;;;;;;;;;;;;;;6.02;71.28;101710.28;5069790;28;1323;-96
2022/03/07 00:53:51;;;;;;;;;;;;;;;6.03;71.46;101717.34;5069806;28;1351;-96
2022/03/07 00:56:19;;;;;;;;;;;;;;;6.02;71.27;101712.13;5030700;28;1408;-96
2022/03/07 00:58:46;;;;;;;;;;;;;;;6.01;71.34;101710.47;5022885;28;1983;-96
2022/03/07 01:01:13;;;;;;;;;;;;;;;5.99;71.19;101696.41;5066451;28;1279;-96
2022/03/07 01:03:42;;;;;;;;;;;;;;;5.98;71.12;101700.09;5036658;28;1487;-96
2022/03/07 01:06:13;;;;;;;;;;;;;;;5.96;71.33;101702.94;5036120;28;1433;-96
2022/03/07 01:08:43;;;;;;;;;;;;;;;5.95;71.09;101708.44;5035884;28;1408;-96
2022/03/07 01:11:12;;;;;;;;;;;;;;;5.94;71.09;101709.44;5035681;28;1297;-96
2022/03/07 01:13:40;;;;;;;;;;;;;;;5.93;70.93;101703.25;5034515;28;1457;-96
2022/03/07 01:16:13;;;;;;;;;;;;;;;5.92;71.16;101705.06;5035812;28;1368;-96
2022/03/07 01:18:41;;;;;;;;;;;;;;;5.90;71.14;101707.03;5034797;28;1910;-96
2022/03/07 01:21:09;;;;;;;;;;;;;;;5.89;71.21;101710.72;5034655;28;1411;-96
2022/03/07 01:23:36;;;;;;;;;;;;;;;5.88;71.10;101717.09;5035683;28;1270;-96
2022/03/07 01:26:07;;;;;;;;;;;;;;;5.87;71.09;101723.41;5035716;28;1372;-96
2022/03/07 01:28:39;;;;;;;;;;;;;;;5.87;71.01;101715.38;5035095;28;1249;-96
2022/03/07 01:31:07;;;;;;;;;;;;;;;5.85;71.17;101712.06;5034540;28;1349;-96
2022/03/07 01:33:36;;;;;;;;;;;;;;;5.85;70.95;101711.19;5035540;28;1240;-96
2022/03/07 01:36:03;;;;;;;;;;;;;;;5.83;70.89;101716.72;5035641;28;1419;-96
2022/03/07 01:38:33;;;;;;;;;;;;;;;5.82;71.02;101704.31;5053189;28;928;-96
2022/03/07 01:41:01;;;;;;;;;;;;;;;5.80;70.98;101706.34;5067937;28;1910;-96
2022/03/07 01:43:30;;;;;;;;;;;;;;;5.79;71.07;101712.66;5022958;28;1214;-96
2022/03/07 01:46:00;;;;;;;;;;;;;;;5.78;71.12;101712.84;5015537;28;1235;-96
2022/03/07 01:48:28;;;;;;;;;;;;;;;5.77;71.07;101709.34;5016187;28;1356;-96
2022/03/07 01:50:58;;;;;;;;;;;;;;;5.75;71.07;101711.31;5015134;28;1383;-96
2022/03/07 01:53:30;;;;;;;;;;;;;;;5.76;71.08;101712.16;5014628;28;1185;-96
2022/03/07 01:56:00;;;;;;;;;;;;;;;5.72;71.06;101703.63;5013420;28;1473;-96
2022/03/07 01:58:27;;;;;;;;;;;;;;;5.72;71.04;101711.66;5030459;28;1292;-96
2022/03/07 02:00:54;;;;;;;;;;;;;;;5.71;71.08;101712.66;5034509;28;1961;-96
2022/03/07 02:03:26;;;;;;;;;;;;;;;5.69;70.97;101712.81;5053910;28;1299;-96
2022/03/07 02:05:56;;;;;;;;;;;;;;;5.69;71.06;101706.63;5051801;28;1168;-96
2022/03/07 02:08:24;;;;;;;;;;;;;;;5.67;70.98;101708.59;5053354;28;1482;-96
2022/03/07 02:10:51;;;;;;;;;;;;;;;5.66;70.87;101697.09;5034474;28;1372;-96
2022/03/07 02:13:18;;;;;;;;;;;;;;;5.65;70.75;101695.41;5033758;28;1533;-96
2022/03/07 02:15:50;;;;;;;;;;;;;;;5.64;70.91;101693.72;5034881;28;1256;-96
2022/03/07 02:18:21;;;;;;;;;;;;;;;5.63;70.77;101691.22;5067423;28;1326;-96
2022/03/07 02:20:50;;;;;;;;;;;;;;;5.61;70.99;101693.22;5051215;28;1966;-96
2022/03/07 02:23:19;;;;;;;;;;;;;;;5.60;70.80;101688.88;5034034;28;1496;-96
2022/03/07 02:25:47;;;;;;;;;;;;;;;5.59;70.90;101688.03;5068351;28;1338;-96
2022/03/07 02:28:16;;;;;;;;;;;;;;;5.58;70.96;101697.03;5014810;28;1287;-96
2022/03/07 02:30:45;;;;;;;;;;;;;;;5.58;70.98;101690.84;5011713;28;1315;-96
2022/03/07 02:33:13;;;;;;;;;;;;;;;5.56;70.95;101691.03;5034286;28;1305;-96
2022/03/07 02:35:44;;;;;;;;;;;;;;;5.55;70.65;101685.84;5035048;28;1412;-96
2022/03/07 02:38:16;;;;;;;;;;;;;;;5.53;70.68;101678.00;5067512;28;1228;-96
2022/03/07 02:40:46;;;;;;;;;;;;;;;5.52;70.58;101678.97;5064509;28;1997;-96
2022/03/07 02:43:15;;;;;;;;;;;;;;;5.52;70.95;101673.63;5013514;28;1433;-96
2022/03/07 02:45:45;;;;;;;;;;;;;;;5.52;70.81;101672.78;5014099;28;1245;-96
2022/03/07 02:48:15;;;;;;;;;;;;;;;5.50;70.73;101669.44;5013943;28;1212;-96
2022/03/07 02:50:45;;;;;;;;;;;;;;;5.49;70.82;101663.25;5014226;28;1489;-96
2022/03/07 02:53:17;;;;;;;;;;;;;;;5.47;70.73;101646.53;5031066;28;1104;-96
2022/03/07 02:55:44;;;;;;;;;;;;;;;5.46;70.63;101639.53;5014179;28;1209;-96
2022/03/07 02:58:13;;;;;;;;;;;;;;;5.45;70.75;101637.84;5014122;28;1240;-96
2022/03/07 03:00:43;;;;;;;;;;;;;;;5.45;70.59;101641.38;5019335;28;1891;-96
2022/03/07 03:03:13;;;;;;;;;;;;;;;5.43;70.67;101640.69;5062963;28;1311;-96
2022/03/07 03:05:42;;;;;;;;;;;;;;;5.41;70.77;101634.69;5032933;28;1240;-96
2022/03/07 03:08:10;;;;;;;;;;;;;;;5.40;70.71;101637.50;5017197;28;1431;-96
2022/03/07 03:10:39;;;;;;;;;;;;;;;5.40;70.58;101635.66;5032610;28;1387;-96
2022/03/07 03:13:07;;;;;;;;;;;;;;;5.39;70.77;101638.50;5033879;28;1279;-96
2022/03/07 03:15:35;;;;;;;;;;;;;;;5.37;70.73;101630.63;5029809;28;1223;-96
2022/03/07 03:18:06;;;;;;;;;;;;;;;5.37;70.54;101641.31;5029590;28;1471;-96
2022/03/07 03:20:34;;;;;;;;;;;;;;;5.35;70.67;101642.47;5029568;28;1973;-96
2022/03/07 03:23:08;;;;;;;;;;;;;;;5.34;70.67;101649.66;5028435;28;1733;-96
2022/03/07 03:25:37;;;;;;;;;;;;;;;5.34;70.49;101651.50;5030667;28;1340;-96
2022/03/07 03:28:05;;;;;;;;;;;;;;;5.31;70.70;101655.31;5029637;28;1216;-96
2022/03/07 03:30:32;;;;;;;;;;;;;;;5.31;70.71;101649.13;5029429;28;1307;-96
2022/03/07 03:33:00;;;;;;;;;;;;;;;5.31;70.92;101647.28;5038078;28;1350;-96
2022/03/07 03:35:27;;;;;;;;;;;;;;;5.30;70.84;101650.13;5029035;28;1189;-96
2022/03/07 03:37:55;;;;;;;;;;;;;;;5.28;70.72;101649.44;5022190;28;1302;-96
2022/03/07 03:40:22;;;;;;;;;;;;;;;5.27;70.83;101643.28;5028310;28;2008;-96
2022/03/07 03:42:50;;;;;;;;;;;;;;;5.27;70.68;101640.59;5045141;28;1426;-96
2022/03/07 03:45:16;;;;;;;;;;;;;;;5.25;70.68;101634.56;5018036;28;1207;-96
2022/03/07 03:47:44;;;;;;;;;;;;;;;5.23;70.71;101629.41;4993870;28;1356;-96
2022/03/07 03:50:13;;;;;;;;;;;;;;;5.24;70.64;101625.72;5009590;28;1393;-96
2022/03/07 03:52:41;;;;;;;;;;;;;;;5.22;70.70;101619.69;5008289;28;1412;-96
2022/03/07 03:55:10;;;;;;;;;;;;;;;5.22;70.67;101624.22;5009384;28;1464;-96
2022/03/07 03:57:40;;;;;;;;;;;;;;;5.20;70.74;101607.50;5007965;28;1267;-96
2022/03/07 04:00:08;;;;;;;;;;;;;;;5.19;70.76;101609.34;5009084;28;1887;-96
2022/03/07 04:02:38;;;;;;;;;;;;;;;5.18;70.48;101602.31;5020941;28;1211;-96
2022/03/07 04:05:25;;;;;;;;;;;;;;;5.17;70.59;101602.47;5043662;28;1255;-96
2022/03/07 04:07:57;;;;;;;;;;;;;;;5.16;70.55;101606.97;5013446;28;1292;-96
2022/03/07 04:10:24;;;;;;;;;;;;;;;5.15;70.67;101605.31;5028162;28;1275;-96
2022/03/07 04:12:51;;;;;;;;;;;;;;;5.15;70.54;101604.50;5047850;28;1481;-96
2022/03/07 04:15:21;;;;;;;;;;;;;;;5.14;70.42;101597.44;5062174;28;1253;-96
2022/03/07 04:17:52;;;;;;;;;;;;;;;5.14;70.40;101603.63;5017541;28;1497;-96
2022/03/07 04:20:19;;;;;;;;;;;;;;;5.12;70.48;101602.97;5014271;28;1974;-96
2022/03/07 04:22:47;;;;;;;;;;;;;;;5.10;70.65;101594.25;5015022;28;1363;-96
2022/03/07 04:25:14;;;;;;;;;;;;;;;5.11;70.47;101584.41;5014314;28;1300;-96
2022/03/07 04:27:42;;;;;;;;;;;;;;;5.10;70.64;101593.44;5014578;28;1185;-96
2022/03/07 04:30:11;;;;;;;;;;;;;;;5.07;70.49;101578.56;5014060;28;1248;-96
2022/03/07 04:32:38;;;;;;;;;;;;;;;5.07;70.46;101585.75;5032357;28;1329;-96
2022/03/07 04:35:05;;;;;;;;;;;;;;;5.06;70.67;101570.69;5032960;28;1368;-96
2022/03/07 04:37:33;;;;;;;;;;;;;;;5.05;70.48;101577.88;5033899;28;1149;-96
2022/03/07 04:40:01;;;;;;;;;;;;;;;5.04;70.61;101580.72;5013345;28;1883;-96
2022/03/07 04:42:27;;;;;;;;;;;;;;;5.04;70.56;101583.38;5032356;28;1299;-96
2022/03/07 04:44:54;;;;;;;;;;;;;;;5.03;70.43;101576.34;5029319;28;1240;-96
2022/03/07 04:47:21;;;;;;;;;;;;;;;5.01;70.46;101585.38;5029739;28;1244;-96
2022/03/07 04:49:47;;;;;;;;;;;;;;;5.00;70.44;101586.38;5030080;28;1181;-96
2022/03/07 04:52:14;;;;;;;;;;;;;;;4.99;70.51;101583.84;5013670;28;1185;-96
2022/03/07 04:54:41;;;;;;;;;;;;;;;4.98;70.44;101590.19;5030264;28;1229;-96
2022/03/07 04:57:08;;;;;;;;;;;;;;;4.97;70.53;101591.16;5029666;28;1405;-96
2022/03/07 04:59:35;;;;;;;;;;;;;;;4.95;70.37;101582.50;5030100;28;1397;-96
2022/03/07 05:02:03;;;;;;;;;;;;;;;4.95;70.31;101585.16;5032720;28;1907;-96
2022/03/07 05:04:33;;;;;;;;;;;;;;;4.95;70.77;101583.34;5032150;28;1247;-96
2022/03/07 05:07:00;;;;;;;;;;;;;;;4.93;70.49;101596.00;5013829;28;1330;-96
2022/03/07 05:09:27;;;;;;;;;;;;;;;4.92;70.55;101594.31;5014816;28;1266;-96
2022/03/07 05:11:54;;;;;;;;;;;;;;;4.92;70.42;101601.50;5032799;28;1232;-96
2022/03/07 05:14:21;;;;;;;;;;;;;;;4.89;70.47;101599.97;5028192;28;1378;-96
2022/03/07 05:16:49;;;;;;;;;;;;;;;4.90;70.32;101598.97;5010928;28;1244;-96
2022/03/07 05:19:16;;;;;;;;;;;;;;;4.90;70.37;101596.31;5008831;28;1317;-96
2022/03/07 05:21:43;;;;;;;;;;;;;;;4.88;70.39;101594.78;5010817;28;1948;-96
2022/03/07 05:24:10;;;;;;;;;;;;;;;4.87;70.45;101588.63;5028170;28;1357;-96
2022/03/07 05:26:37;;;;;;;;;;;;;;;4.86;70.38;101586.94;5030547;28;1258;-96
2022/03/07 05:29:04;;;;;;;;;;;;;;;4.85;70.31;101587.94;5045732;28;1450;-96
2022/03/07 05:31:31;;;;;;;;;;;;;;;4.84;70.33;101586.25;5044441;28;1343;-96
2022/03/07 05:33:59;;;;;;;;;;;;;;;4.82;70.17;101582.91;5028367;28;1405;-96
2022/03/07 05:36:34;;;;;;;;;;;;;;;4.80;70.55;101574.22;5029078;28;1384;-96
2022/03/07 05:39:01;;;;;;;;;;;;;;;4.81;70.42;101575.91;5044961;28;1255;-96
2022/03/07 05:41:28;;;;;;;;;;;;;;;4.80;70.52;101570.72;5024543;28;1882;-96
2022/03/07 05:43:55;;;;;;;;;;;;;;;4.80;70.53;101576.06;5009196;28;1323;-96
2022/03/07 05:46:22;;;;;;;;;;;;;;;4.78;70.33;101576.22;5008145;28;1213;-96
2022/03/07 05:48:50;;;;;;;;;;;;;;;4.77;70.36;101577.22;5012524;28;1338;-96
2022/03/07 05:51:22;;;;;;;;;;;;;;;4.76;70.34;101575.53;5026792;28;1240;-96
2022/03/07 05:53:50;;;;;;;;;;;;;;;4.75;70.34;101579.19;5043589;28;1341;-96
2022/03/07 05:56:16;;;;;;;;;;;;;;;4.73;70.34;101573.16;5021934;28;1413;-96
2022/03/07 05:58:43;;;;;;;;;;;;;;;4.71;70.47;101568.00;5006041;28;1310;-96
2022/03/07 06:01:10;;;;;;;;;;;;;;;4.71;70.36;101561.84;5005335;28;1914;-96
2022/03/07 06:03:39;;;;;;;;;;;;;;;4.70;70.57;101562.81;5005511;28;1276;-96
2022/03/07 06:06:07;;;;;;;;;;;;;;;4.70;70.45;101568.97;5005932;28;1435;-96
2022/03/07 06:08:35;;;;;;;;;;;;;;;4.69;70.36;101569.16;5011350;28;1217;-96
2022/03/07 06:11:02;;;;;;;;;;;;;;;4.68;70.33;101567.47;5038209;28;1198;-96
2022/03/07 06:13:29;;;;;;;;;;;;;;;4.68;70.40;101575.50;5024182;28;1391;-96
2022/03/07 06:15:55;;;;;;;;;;;;;;;4.65;70.35;101565.97;5057701;28;1267;-96
2022/03/07 06:18:22;;;;;;;;;;;;;;;4.65;70.35;101560.63;5045186;28;1197;-96
2022/03/07 06:20:48;;;;;;;;;;;;;;;4.64;70.31;101572.28;5027581;28;1902;-96
2022/03/07 06:23:15;;;;;;;;;;;;;;;4.63;70.25;101570.59;5057323;28;1144;-96
2022/03/07 06:25:42;;;;;;;;;;;;;;;4.61;70.38;101574.41;5027324;28;1375;-96
2022/03/07 06:28:11;;;;;;;;;;;;;;;4.61;70.29;101577.91;5060717;28;1460;-96
2022/03/07 06:30:37;;;;;;;;;;;;;;;4.60;70.26;101580.75;5026357;28;1387;-96
2022/03/07 06:33:04;;;;;;;;;;;;;;;4.60;70.31;101588.78;5055521;28;1223;-96
2022/03/07 06:35:31;;;;;;;;;;;;;;;4.59;70.14;101589.75;5026564;28;1353;-96
2022/03/07 06:37:58;;;;;;;;;;;;;;;4.58;70.57;101588.91;5019678;28;1366;-96
2022/03/07 06:40:26;;;;;;;;;;;;;;;4.56;70.20;101585.56;5006452;28;1891;-96
2022/03/07 06:42:53;;;;;;;;;;;;;;;4.57;70.17;101592.56;5006280;28;1373;-96
2022/03/07 06:45:20;;;;;;;;;;;;;;;4.55;70.46;101592.72;5013233;28;1600;-96
2022/03/07 06:47:47;;;;;;;;;;;;;;;4.53;70.33;101581.38;5054104;28;1338;-96
2022/03/07 06:50:14;;;;;;;;;;;;;;;4.53;70.09;101583.22;5025042;28;1217;-96
2022/03/07 06:52:40;;;;;;;;;;;;;;;4.53;70.13;101586.72;5026963;28;1295;-96
2022/03/07 06:55:07;;;;;;;;;;;;;;;4.54;70.13;101590.22;5020267;28;1224;-96
2022/03/07 06:57:33;;;;;;;;;;;;;;;4.53;70.09;101592.06;5006638;28;1270;-96
2022/03/07 07:00:00;;;;;;;;;;;;;;;4.53;70.23;101589.38;5006283;28;1265;-96
2022/03/07 07:02:27;;;;;;;;;;;;;;;4.53;70.05;101586.72;5006141;28;2003;-96
2022/03/07 07:04:54;;;;;;;;;;;;;;;4.53;70.19;101583.22;5013547;28;1220;-96
2022/03/07 07:07:20;;;;;;;;;;;;;;;4.51;70.14;101591.38;5053351;28;1207;-96
2022/03/07 07:09:47;;;;;;;;;;;;;;;4.53;70.06;101591.22;5023479;28;1185;-96
2022/03/07 07:12:13;;;;;;;;;;;;;;;4.54;70.02;101591.06;5050981;28;1261;-96
2022/03/07 07:14:40;;;;;;;;;;;;;;;4.52;70.00;101579.69;5022710;28;1332;-96
2022/03/07 07:17:06;;;;;;;;;;;;;;;4.52;69.92;101577.03;5052454;28;1235;-96
2022/03/07 07:19:33;;;;;;;;;;;;;;;4.53;69.96;101580.56;5023082;28;1371;-96
2022/03/07 07:21:59;;;;;;;;;;;;;;;4.52;69.80;101586.84;5050522;28;1890;-96
2022/03/07 07:24:26;;;;;;;;;;;;;;;4.53;69.83;101593.91;5022535;28;1355;-96
2022/03/07 07:26:53;;;;;;;;;;;;;;;4.53;69.81;101593.91;5051125;28;1269;-96
2022/03/07 07:29:19;;;;;;;;;;;;;;;4.54;69.60;101596.38;5030936;28;1279;-96
2022/03/07 07:31:47;;;;;;;;;;;;;;;4.53;69.74;101593.91;5018780;28;1241;-96
2022/03/07 07:34:13;;;;;;;;;;;;;;;4.54;69.67;101600.91;5017560;28;1479;-96
2022/03/07 07:36:40;;;;;;;;;;;;;;;4.54;69.54;101604.41;5017693;28;1211;-96
2022/03/07 07:39:06;;;;;;;;;;;;;;;4.53;69.38;101613.41;5020315;28;1327;-96
2022/03/07 07:41:33;;;;;;;;;;;;;;;4.51;69.75;101615.38;5020551;28;1975;-96
2022/03/07 07:43:59;;;;;;;;;;;;;;;4.52;69.58;101609.03;5051775;28;1292;-96
2022/03/07 07:46:25;;;;;;;;;;;;;;;4.53;69.50;101604.56;5023714;28;1168;-96
2022/03/07 07:48:52;;;;;;;;;;;;;;;4.54;69.44;101612.41;5051743;28;1195;-96
2022/03/07 07:51:19;;;;;;;;;;;;;;;4.54;69.62;101609.72;5031305;28;1192;-96
2022/03/07 07:53:45;;;;;;;;;;;;;;;4.55;69.42;101611.41;5019129;28;1166;-96
2022/03/07 07:56:12;;;;;;;;;;;;;;;4.53;69.64;101618.75;5032484;28;1181;-96
2022/03/07 07:58:39;;;;;;;;;;;;;;;4.57;69.37;101611.25;5055943;28;1416;-96
2022/03/07 08:01:06;;;;;;;;;;;;;;;4.55;69.47;101618.56;5050419;28;1973;-96
2022/03/07 08:03:32;;;;;;;;;;;;;;;4.54;69.48;101623.06;5030934;28;1456;-96
2022/03/07 08:05:58;;;;;;;;;;;;;;;4.54;69.18;101608.91;5023261;28;1331;-96
2022/03/07 08:08:25;;;;;;;;;;;;;;;4.57;69.47;101611.25;5023545;28;1297;-96
2022/03/07 08:10:51;;;;;;;;;;;;;;;4.56;69.37;101604.25;5024054;28;1208;-96
2022/03/07 08:13:18;;;;;;;;;;;;;;;4.59;69.31;101606.63;5024524;28;1407;-96
2022/03/07 08:15:45;;;;;;;;;;;;;;;4.58;69.34;101610.25;5053296;28;1370;-96
2022/03/07 08:18:12;;;;;;;;;;;;;;;4.61;69.33;101606.44;5026099;28;1396;-96
2022/03/07 08:20:38;;;;;;;;;;;;;;;4.57;69.51;101597.09;5055507;28;1913;-96
2022/03/07 08:23:05;;;;;;;;;;;;;;;4.57;69.31;101597.91;5027721;28;1292;-96
2022/03/07 08:25:32;;;;;;;;;;;;;;;4.60;69.32;101602.09;5037191;28;1430;-96
2022/03/07 08:28:00;;;;;;;;;;;;;;;4.62;69.20;101590.28;5029291;28;1196;-96
2022/03/07 08:30:26;;;;;;;;;;;;;;;4.61;69.18;101599.28;5029507;28;1339;-96
2022/03/07 08:32:53;;;;;;;;;;;;;;;4.61;69.24;101601.09;5030337;28;1292;-96
2022/03/07 08:35:21;;;;;;;;;;;;;;;4.64;69.23;101598.97;5066300;28;1305;-96
2022/03/07 08:37:51;;;;;;;;;;;;;;;4.65;69.05;101605.16;5056026;28;1728;-96
2022/03/07 08:40:18;;;;;;;;;;;;;;;4.64;69.32;101612.31;5034277;28;1212;-96
2022/03/07 08:42:47;;;;;;;;;;;;;;;4.65;69.16;101613.16;5045155;28;1894;-96
2022/03/07 08:45:14;;;;;;;;;;;;;;;4.68;69.06;101607.50;5068769;28;1198;-96
2022/03/07 08:47:45;;;;;;;;;;;;;;;4.68;68.91;101604.84;5070227;28;1227;-96
2022/03/07 08:50:21;;;;;;;;;;;;;;;4.70;69.09;101605.50;5038106;28;1256;-96
